Ridgeview, WV (25169)

8:51 PM EDT en Septiembre 15, 2014 (GMT -0400)
SOD | Change Station
CLOSE
Current Station
Estación meteorológica personal
Location: Sod, WV
Altura: 771 ft
Estaciones meteorológicas cercanas

Alt 771 ft 38.27 °N, 81.89 °W | Updated 1 second ago

Muy nublado
Muy nublado
61.5 ° F
Sensación térmica 61.5 ° F
N
0.0
Viento Variable Viento desde Norte
Gusts 0.0 mph

Hoy
Alta -- | Baja -- ° F
--% Posibilidad de precipitaciones
Ayer
Alta -- | Baja -- ° F
Precip. -- pul
7:08 AM 7:35 PM
Gibosa menguante, 51% visible
Presión 30.10 pul
Visibilidad 10.0 Millas
Nubes Baja 12000 ft
Muy nublado 30000 ft
Punto de rocío 59 ° F
Humedad 92%
Precipitaciones 0.00 pul
Espesor de la nieve No disponible.
UV 0 de una escala de 12
Polen 4.50 de una escala de 12
Calidad del aire No disponible.
Flu Activity No disponible.
METAR KCRW 152354Z 00000KT 10SM FEW120 BKN300 18/16 A3010 RMK AO2 SLP191 T01830161 10228 20183 58007

More Conditions Fewer Conditions

Presión 30.10 pul
Visibilidad 10.0 Millas
Nubes Baja 12000 ft
Muy nublado 30000 ft
Punto de rocío 59 ° F
Humedad 92%
Precipitaciones 0.00 pul
Espesor de la nieve No disponible.
UV 0 de una escala de 12
Polen 4.50 de una escala de 12
Calidad del aire No disponible.
Flu Activity No disponible.
METAR KCRW 152354Z 00000KT 10SM FEW120 BKN300 18/16 A3010 RMK AO2 SLP191 T01830161 10228 20183 58007

More Conditions Fewer Conditions

10-Day Weather Forecast

Almanac

Astronomía

Sep. 15, 2014 Salida Puesta
Hora real 7:08 AM EDT 7:35 PM EDT
Crepúsculo civil 6:42 AM EDT 8:01 PM EDT
Crepúsculo náutico 6:11 AM EDT 8:32 PM EDT
Crepúsculo astronómico 5:39 AM EDT 9:04 PM EDT
Luna Sin salida de luna 2:02 PM EDT (9/15)
Horas de luz 13h 19m
Horas de luz
12h 26m
Tomorrow will be 2m 27s shorter.
Gibosa menguante, 51% of the Moon is Illuminated
Hoy
Gibosa menguante
Sep 15
Cuarto menguante
Sep 24
Nueva
Oct 1
Cuarto creciente
Oct 8
Luna llena

Extremos de hoy

Máximos del estado Bajos del estado

Community

WunderPhotos

Upload Photos

1,753,630 ¡fotos cargadas!

Nearby

Grosos de nieve

Estación Profundido Altura
No tenemos constancia de nieve nueva.

Actividad de terremotos

Ciudad Distance Mag. Tiempo y dato
No hay informes recientes de la actividad sísmica.
Magnitud mínima muestra es 2,5.

Temperaturas de aguas costeras

Lugar Temperatura
Sin partes meteorológicos de las estaciones

Estaciones meteorológicas cercanas